sensor_id;sensor_type;location;lat;lon;timestamp;pressure;altitude;pressure_sealevel;temperature;humidity
15263;BME280;7733;51.554;13.590;2022-10-22T00:02:22;100041.28;;;13.31;100.00
15263;BME280;7733;51.554;13.590;2022-10-22T00:04:49;100048.47;;;13.26;100.00
15263;BME280;7733;51.554;13.590;2022-10-22T00:07:19;100048.19;;;13.35;100.00
15263;BME280;7733;51.554;13.590;2022-10-22T00:09:45;100046.09;;;13.46;100.00
15263;BME280;7733;51.554;13.590;2022-10-22T00:12:13;100055.81;;;13.44;100.00
15263;BME280;7733;51.554;13.590;2022-10-22T00:14:40;100054.00;;;13.46;100.00
15263;BME280;7733;51.554;13.590;2022-10-22T00:17:06;100065.00;;;13.31;100.00
15263;BME280;7733;51.554;13.590;2022-10-22T00:19:32;100060.63;;;12.99;100.00
15263;BME280;7733;51.554;13.590;2022-10-22T00:21:58;100057.47;;;13.17;100.00
15263;BME280;7733;51.554;13.590;2022-10-22T00:24:24;100035.19;;;13.29;100.00
15263;BME280;7733;51.554;13.590;2022-10-22T00:26:50;100045.38;;;13.39;100.00
15263;BME280;7733;51.554;13.590;2022-10-22T00:29:15;100043.34;;;13.49;100.00
15263;BME280;7733;51.554;13.590;2022-10-22T00:31:45;100034.09;;;13.36;100.00
15263;BME280;7733;51.554;13.590;2022-10-22T00:34:16;100012.75;;;13.16;100.00
15263;BME280;7733;51.554;13.590;2022-10-22T00:36:42;100019.75;;;13.46;100.00
15263;BME280;7733;51.554;13.590;2022-10-22T00:39:08;100015.22;;;13.50;100.00
15263;BME280;7733;51.554;13.590;2022-10-22T00:41:33;100019.91;;;13.40;100.00
15263;BME280;7733;51.554;13.590;2022-10-22T00:44:03;100027.78;;;13.42;100.00
15263;BME280;7733;51.554;13.590;2022-10-22T00:46:29;100029.16;;;13.53;100.00
15263;BME280;7733;51.554;13.590;2022-10-22T00:49:01;100038.88;;;13.51;100.00
15263;BME280;7733;51.554;13.590;2022-10-22T00:51:31;100032.72;;;13.52;100.00
15263;BME280;7733;51.554;13.590;2022-10-22T00:54:05;100029.38;;;13.47;100.00
15263;BME280;7733;51.554;13.590;2022-10-22T00:56:32;100028.22;;;13.28;100.00
15263;BME280;7733;51.554;13.590;2022-10-22T00:58:59;100017.38;;;13.37;100.00
15263;BME280;7733;51.554;13.590;2022-10-22T01:01:30;100017.09;;;13.18;100.00
15263;BME280;7733;51.554;13.590;2022-10-22T01:03:56;100029.63;;;13.38;100.00
15263;BME280;7733;51.554;13.590;2022-10-22T01:06:30;100027.97;;;13.35;100.00
15263;BME280;7733;51.554;13.590;2022-10-22T01:09:21;100034.09;;;13.36;100.00
15263;BME280;7733;51.554;13.590;2022-10-22T01:12:29;100040.00;;;13.44;100.00
15263;BME280;7733;51.554;13.590;2022-10-22T01:15:25;100048.56;;;13.23;100.00
15263;BME280;7733;51.554;13.590;2022-10-22T01:24:19;100043.50;;;13.45;100.00
15263;BME280;7733;51.554;13.590;2022-10-22T01:27:21;100038.88;;;13.51;100.00
15263;BME280;7733;51.554;13.590;2022-10-22T01:30:01;100027.22;;;13.58;100.00
15263;BME280;7733;51.554;13.590;2022-10-22T01:32:34;100024.66;;;13.57;100.00
15263;BME280;7733;51.554;13.590;2022-10-22T01:35:08;100032.50;;;13.58;100.00
15263;BME280;7733;51.554;13.590;2022-10-22T01:37:45;100028.69;;;13.68;100.00
15263;BME280;7733;51.554;13.590;2022-10-22T01:40:15;100023.03;;;13.79;100.00
15263;BME280;7733;51.554;13.590;2022-10-22T01:42:41;100022.19;;;13.79;100.00
15263;BME280;7733;51.554;13.590;2022-10-22T01:45:13;100024.00;;;13.77;100.00
15263;BME280;7733;51.554;13.590;2022-10-22T01:47:57;100025.59;;;13.82;100.00
15263;BME280;7733;51.554;13.590;2022-10-22T01:53:50;100029.16;;;13.80;100.00
15263;BME280;7733;51.554;13.590;2022-10-22T01:59:28;100030.09;;;13.79;100.00
15263;BME280;7733;51.554;13.590;2022-10-22T02:02:28;100015.41;;;13.72;100.00
15263;BME280;7733;51.554;13.590;2022-10-22T02:07:40;100030.50;;;13.93;100.00
15263;BME280;7733;51.554;13.590;2022-10-22T02:10:09;100030.50;;;13.93;100.00
15263;BME280;7733;51.554;13.590;2022-10-22T02:12:38;100027.09;;;13.89;100.00
15263;BME280;7733;51.554;13.590;2022-10-22T02:15:06;100030.50;;;13.93;100.00
15263;BME280;7733;51.554;13.590;2022-10-22T02:17:36;100026.19;;;13.90;100.00
15263;BME280;7733;51.554;13.590;2022-10-22T02:20:12;100021.88;;;13.88;100.00
15263;BME280;7733;51.554;13.590;2022-10-22T02:22:41;100020.09;;;13.88;100.00
15263;BME280;7733;51.554;13.590;2022-10-22T02:25:10;100018.22;;;13.92;100.00
15263;BME280;7733;51.554;13.590;2022-10-22T02:28:06;100021.22;;;13.81;100.00
15263;BME280;7733;51.554;13.590;2022-10-22T02:30:38;100018.63;;;13.80;100.00
15263;BME280;7733;51.554;13.590;2022-10-22T02:33:20;100018.34;;;13.89;100.00
15263;BME280;7733;51.554;13.590;2022-10-22T02:35:48;100014.69;;;13.93;100.00
15263;BME280;7733;51.554;13.590;2022-10-22T02:38:16;100016.34;;;13.69;100.00
15263;BME280;7733;51.554;13.590;2022-10-22T02:40:42;100008.72;;;13.88;100.00
15263;BME280;7733;51.554;13.590;2022-10-22T02:43:08;100010.66;;;13.81;100.00
15263;BME280;7733;51.554;13.590;2022-10-22T02:45:34;100010.66;;;13.81;100.00
15263;BME280;7733;51.554;13.590;2022-10-22T02:48:01;100018.09;;;13.70;100.00
15263;BME280;7733;51.554;13.590;2022-10-22T02:50:27;100008.72;;;13.88;100.00
15263;BME280;7733;51.554;13.590;2022-10-22T02:52:53;100008.91;;;13.82;100.00
15263;BME280;7733;51.554;13.590;2022-10-22T02:55:18;100009.22;;;13.73;100.00
15263;BME280;7733;51.554;13.590;2022-10-22T02:57:44;100013.97;;;13.88;100.00
15263;BME280;7733;51.554;13.590;2022-10-22T03:00:11;100007.69;;;13.92;100.00
15263;BME280;7733;51.554;13.590;2022-10-22T03:02:37;100007.56;;;13.95;100.00
15263;BME280;7733;51.554;13.590;2022-10-22T03:05:04;100013.53;;;14.00;100.00
15263;BME280;7733;51.554;13.590;2022-10-22T03:07:29;100005.56;;;14.03;100.00
15263;BME280;7733;51.554;13.590;2022-10-22T03:09:55;100005.97;;;13.91;100.00
15263;BME280;7733;51.554;13.590;2022-10-22T03:12:21;100011.88;;;13.97;100.00
15263;BME280;7733;51.554;13.590;2022-10-22T03:14:46;100003.16;;;13.95;100.00
15263;BME280;7733;51.554;13.590;2022-10-22T03:17:12;100013.72;;;13.95;100.00
15263;BME280;7733;51.554;13.590;2022-10-22T03:19:38;100005.56;;;14.03;100.00
15263;BME280;7733;51.554;13.590;2022-10-22T03:22:13;99997.25;;;13.89;100.00
15263;BME280;7733;51.554;13.590;2022-10-22T03:24:47;100004.72;;;14.01;100.00
15263;BME280;7733;51.554;13.590;2022-10-22T03:27:17;100000.16;;;14.06;100.00
15263;BME280;7733;51.554;13.590;2022-10-22T03:29:45;100006.53;;;13.99;100.00
15263;BME280;7733;51.554;13.590;2022-10-22T03:32:12;100002.91;;;14.03;100.00
15263;BME280;7733;51.554;13.590;2022-10-22T03:34:38;100001.88;;;14.07;100.00
15263;BME280;7733;51.554;13.590;2022-10-22T03:37:03;100006.53;;;13.99;100.00
15263;BME280;7733;51.554;13.590;2022-10-22T03:39:32;99997.69;;;14.02;100.00
15263;BME280;7733;51.554;13.590;2022-10-22T03:41:59;100006.59;;;13.97;100.00
15263;BME280;7733;51.554;13.590;2022-10-22T03:44:26;100009.19;;;13.99;100.00
15263;BME280;7733;51.554;13.590;2022-10-22T03:46:52;100010.22;;;13.95;100.00
15263;BME280;7733;51.554;13.590;2022-10-22T03:49:18;100007.91;;;13.86;100.00
15263;BME280;7733;51.554;13.590;2022-10-22T03:51:43;100026.91;;;13.69;100.00
15263;BME280;7733;51.554;13.590;2022-10-22T03:54:09;100033.47;;;13.56;100.00
15263;BME280;7733;51.554;13.590;2022-10-22T03:56:35;100031.59;;;13.59;100.00
15263;BME280;7733;51.554;13.590;2022-10-22T03:59:01;100029.09;;;13.83;100.00
15263;BME280;7733;51.554;13.590;2022-10-22T04:01:29;100039.81;;;13.77;100.00
15263;BME280;7733;51.554;13.590;2022-10-22T04:03:55;100048.63;;;13.49;100.00
15263;BME280;7733;51.554;13.590;2022-10-22T04:06:22;100048.75;;;13.73;100.00
15263;BME280;7733;51.554;13.590;2022-10-22T04:08:47;100052.28;;;13.72;100.00
15263;BME280;7733;51.554;13.590;2022-10-22T04:11:14;100056.75;;;13.69;100.00
15263;BME280;7733;51.554;13.590;2022-10-22T04:13:41;100057.47;;;13.75;100.00
15263;BME280;7733;51.554;13.590;2022-10-22T04:16:13;100050.94;;;13.86;100.00
15263;BME280;7733;51.554;13.590;2022-10-22T04:18:40;100056.06;;;13.91;100.00
15263;BME280;7733;51.554;13.590;2022-10-22T04:21:09;100057.06;;;13.87;100.00
15263;BME280;7733;51.554;13.590;2022-10-22T04:23:35;100067.41;;;13.93;100.00
15263;BME280;7733;51.554;13.590;2022-10-22T04:26:05;100071.53;;;14.02;100.00
15263;BME280;7733;51.554;13.590;2022-10-22T04:28:31;100061.69;;;14.07;100.00
15263;BME280;7733;51.554;13.590;2022-10-22T04:30:56;100062.59;;;14.06;100.00
15263;BME280;7733;51.554;13.590;2022-10-22T04:33:22;100066.00;;;14.09;100.00
15263;BME280;7733;51.554;13.590;2022-10-22T04:35:48;100067.13;;;14.02;100.00
15263;BME280;7733;51.554;13.590;2022-10-22T04:38:14;100069.53;;;14.08;100.00
15263;BME280;7733;51.554;13.590;2022-10-22T04:40:40;100054.53;;;14.10;100.00
15263;BME280;7733;51.554;13.590;2022-10-22T04:43:06;100050.13;;;14.11;100.00
15263;BME280;7733;51.554;13.590;2022-10-22T04:45:33;100053.31;;;13.94;100.00
15263;BME280;7733;51.554;13.590;2022-10-22T04:47:59;100045.59;;;14.14;100.00
15263;BME280;7733;51.554;13.590;2022-10-22T04:50:25;100042.16;;;14.12;100.00
15263;BME280;7733;51.554;13.590;2022-10-22T04:52:50;100038.72;;;14.10;100.00
15263;BME280;7733;51.554;13.590;2022-10-22T04:55:16;100030.56;;;14.16;100.00
15263;BME280;7733;51.554;13.590;2022-10-22T04:57:41;100031.09;;;14.27;100.00
15263;BME280;7733;51.554;13.590;2022-10-22T05:00:08;100032.16;;;14.22;100.00
15263;BME280;7733;51.554;13.590;2022-10-22T05:02:33;100034.41;;;14.08;100.00
15263;BME280;7733;51.554;13.590;2022-10-22T05:04:59;100038.44;;;14.18;100.00
15263;BME280;7733;51.554;13.590;2022-10-22T05:07:25;100047.59;;;14.32;100.00
15263;BME280;7733;51.554;13.590;2022-10-22T05:09:50;100050.66;;;14.20;100.00
15263;BME280;7733;51.554;13.590;2022-10-22T05:12:17;100043.25;;;14.31;100.00
15263;BME280;7733;51.554;13.590;2022-10-22T05:14:43;100043.47;;;14.25;100.00
15263;BME280;7733;51.554;13.590;2022-10-22T05:17:08;100047.72;;;14.29;100.00
15263;BME280;7733;51.554;13.590;2022-10-22T05:19:34;100053.25;;;14.22;100.00
15263;BME280;7733;51.554;13.590;2022-10-22T05:22:02;100048.94;;;14.19;100.00
15263;BME280;7733;51.554;13.590;2022-10-22T05:24:31;100050.00;;;14.14;100.00
15263;BME280;7733;51.554;13.590;2022-10-22T05:26:58;100050.91;;;14.13;100.00
15263;BME280;7733;51.554;13.590;2022-10-22T05:29:25;100052.47;;;14.18;100.00
15263;BME280;7733;51.554;13.590;2022-10-22T05:31:51;100057.47;;;14.27;100.00
15263;BME280;7733;51.554;13.590;2022-10-22T05:34:18;100053.09;;;14.26;100.00
15263;BME280;7733;51.554;13.590;2022-10-22T05:36:44;100056.66;;;14.25;100.00
15263;BME280;7733;51.554;13.590;2022-10-22T05:39:10;100060.91;;;14.29;100.00
15263;BME280;7733;51.554;13.590;2022-10-22T05:41:36;100065.09;;;14.35;100.00
15263;BME280;7733;51.554;13.590;2022-10-22T05:44:03;100059.81;;;14.35;100.00
15263;BME280;7733;51.554;13.590;2022-10-22T05:46:33;100057.13;;;14.37;100.00
15263;BME280;7733;51.554;13.590;2022-10-22T05:49:03;100068.41;;;14.42;100.00
15263;BME280;7733;51.554;13.590;2022-10-22T05:51:33;100067.78;;;14.34;100.00
15263;BME280;7733;51.554;13.590;2022-10-22T05:54:02;100083.41;;;14.40;100.00
15263;BME280;7733;51.554;13.590;2022-10-22T05:56:30;100072.75;;;14.44;100.00
15263;BME280;7733;51.554;13.590;2022-10-22T05:58:59;100072.28;;;14.56;100.00
15263;BME280;7733;51.554;13.590;2022-10-22T06:01:31;100074.56;;;14.41;100.00
15263;BME280;7733;51.554;13.590;2022-10-22T06:04:00;100084.25;;;14.40;100.00
15263;BME280;7733;51.554;13.590;2022-10-22T06:06:45;100078.13;;;14.40;100.00
15263;BME280;7733;51.554;13.590;2022-10-22T06:09:28;100084.16;;;14.45;100.00
15263;BME280;7733;51.554;13.590;2022-10-22T06:11:56;100093.97;;;14.40;100.00
15263;BME280;7733;51.554;13.590;2022-10-22T06:14:22;100084.84;;;14.50;100.00
15263;BME280;7733;51.554;13.590;2022-10-22T06:16:49;100077.75;;;14.52;100.00
15263;BME280;7733;51.554;13.590;2022-10-22T06:19:17;100091.81;;;14.52;100.00
15263;BME280;7733;51.554;13.590;2022-10-22T06:21:44;100093.81;;;14.46;100.00
15263;BME280;7733;51.554;13.590;2022-10-22T06:24:10;100083.50;;;14.37;100.00
15263;BME280;7733;51.554;13.590;2022-10-22T06:26:36;100095.31;;;14.53;100.00
15263;BME280;7733;51.554;13.590;2022-10-22T06:29:03;100092.09;;;14.45;100.00
15263;BME280;7733;51.554;13.590;2022-10-22T06:31:29;100096.41;;;14.19;100.00
15263;BME280;7733;51.554;13.590;2022-10-22T06:34:06;100086.00;;;14.41;100.00
15263;BME280;7733;51.554;13.590;2022-10-22T06:36:32;100089.97;;;14.54;100.00
15263;BME280;7733;51.554;13.590;2022-10-22T06:38:57;100091.63;;;14.57;100.00
15263;BME280;7733;51.554;13.590;2022-10-22T06:41:23;100096.81;;;14.60;100.00
15263;BME280;7733;51.554;13.590;2022-10-22T06:43:49;100104.53;;;14.66;100.00
15263;BME280;7733;51.554;13.590;2022-10-22T06:46:19;100115.88;;;14.68;100.00
15263;BME280;7733;51.554;13.590;2022-10-22T06:48:53;100118.25;;;14.51;100.00
15263;BME280;7733;51.554;13.590;2022-10-22T06:51:19;100114.34;;;14.63;100.00
15263;BME280;7733;51.554;13.590;2022-10-22T06:53:48;100126.44;;;14.68;100.00
15263;BME280;7733;51.554;13.590;2022-10-22T06:56:18;100132.69;;;14.66;100.00
15263;BME280;7733;51.554;13.590;2022-10-22T06:58:48;100141.72;;;14.58;100.00
15263;BME280;7733;51.554;13.590;2022-10-22T07:01:20;100160.16;;;14.60;100.00
15263;BME280;7733;51.554;13.590;2022-10-22T07:03:46;100162.84;;;14.58;100.00
15263;BME280;7733;51.554;13.590;2022-10-22T07:06:13;100166.63;;;14.76;100.00
15263;BME280;7733;51.554;13.590;2022-10-22T07:08:41;100167.59;;;14.74;100.00
15263;BME280;7733;51.554;13.590;2022-10-22T07:11:13;100163.03;;;14.79;100.00
15263;BME280;7733;51.554;13.590;2022-10-22T07:13:40;100160.56;;;14.74;100.00
15263;BME280;7733;51.554;13.590;2022-10-22T07:16:07;100152.50;;;14.77;100.00
15263;BME280;7733;51.554;13.590;2022-10-22T07:18:35;100164.00;;;14.76;100.00
15263;BME280;7733;51.554;13.590;2022-10-22T07:21:01;100166.91;;;14.94;100.00
15263;BME280;7733;51.554;13.590;2022-10-22T07:23:27;100175.38;;;15.03;100.00
15263;BME280;7733;51.554;13.590;2022-10-22T07:25:53;100173.56;;;15.05;100.00
15263;BME280;7733;51.554;13.590;2022-10-22T07:28:19;100174.28;;;15.09;100.00
15263;BME280;7733;51.554;13.590;2022-10-22T07:30:45;100163.69;;;15.10;100.00
15263;BME280;7733;51.554;13.590;2022-10-22T07:33:11;100163.91;;;15.04;100.00
15263;BME280;7733;51.554;13.590;2022-10-22T07:35:38;100165.09;;;15.19;100.00
15263;BME280;7733;51.554;13.590;2022-10-22T07:38:05;100171.88;;;15.03;100.00
15263;BME280;7733;51.554;13.590;2022-10-22T07:40:32;100168.47;;;14.99;100.00
15263;BME280;7733;51.554;13.590;2022-10-22T07:42:57;100168.41;;;15.01;100.00
15263;BME280;7733;51.554;13.590;2022-10-22T07:45:23;100178.97;;;15.01;100.00
15263;BME280;7733;51.554;13.590;2022-10-22T07:47:49;100171.38;;;15.16;100.00
15263;BME280;7733;51.554;13.590;2022-10-22T07:50:16;100170.84;;;15.07;100.00
15263;BME280;7733;51.554;13.590;2022-10-22T07:52:41;100184.09;;;15.30;100.00
15263;BME280;7733;51.554;13.590;2022-10-22T07:55:07;100193.31;;;15.43;100.00
15263;BME280;7733;51.554;13.590;2022-10-22T07:57:33;100193.06;;;15.49;100.00
15263;BME280;7733;51.554;13.590;2022-10-22T08:00:02;100188.47;;;15.55;100.00
15263;BME280;7733;51.554;13.590;2022-10-22T08:02:28;100190.09;;;15.59;100.00
15263;BME280;7733;51.554;13.590;2022-10-22T08:04:53;100194.72;;;15.29;100.00
15263;BME280;7733;51.554;13.590;2022-10-22T08:07:22;100198.34;;;15.26;100.00
15263;BME280;7733;51.554;13.590;2022-10-22T08:09:47;100206.72;;;15.37;100.00
15263;BME280;7733;51.554;13.590;2022-10-22T08:12:13;100211.16;;;15.37;100.00
15263;BME280;7733;51.554;13.590;2022-10-22T08:14:39;100211.25;;;15.34;100.00
15263;BME280;7733;51.554;13.590;2022-10-22T08:17:05;100218.00;;;15.42;100.00
15263;BME280;7733;51.554;13.590;2022-10-22T08:19:31;100217.53;;;15.31;100.00
15263;BME280;7733;51.554;13.590;2022-10-22T08:21:58;100223.63;;;15.33;100.00
15263;BME280;7733;51.554;13.590;2022-10-22T08:24:24;100227.31;;;15.52;100.00
15263;BME280;7733;51.554;13.590;2022-10-22T08:26:54;100229.47;;;15.41;100.00
15263;BME280;7733;51.554;13.590;2022-10-22T08:29:22;100226.69;;;15.46;100.00
15263;BME280;7733;51.554;13.590;2022-10-22T08:31:49;100228.47;;;15.45;100.00
15263;BME280;7733;51.554;13.590;2022-10-22T08:34:15;100227.97;;;15.59;100.00
15263;BME280;7733;51.554;13.590;2022-10-22T08:36:41;100235.63;;;15.67;100.00
15263;BME280;7733;51.554;13.590;2022-10-22T08:39:07;100234.88;;;15.87;100.00
15263;BME280;7733;51.554;13.590;2022-10-22T08:41:58;100233.97;;;15.88;100.00
15263;BME280;7733;51.554;13.590;2022-10-22T08:45:02;100237.28;;;15.93;100.00
15263;BME280;7733;51.554;13.590;2022-10-22T08:47:59;100229.16;;;15.97;100.00
15263;BME280;7733;51.554;13.590;2022-10-22T08:50:38;100235.50;;;15.93;100.00
15263;BME280;7733;51.554;13.590;2022-10-22T08:53:13;100242.97;;;16.05;100.00
15263;BME280;7733;51.554;13.590;2022-10-22T08:55:41;100241.34;;;16.01;100.00
15263;BME280;7733;51.554;13.590;2022-10-22T08:58:45;100251.91;;;16.03;100.00
15263;BME280;7733;51.554;13.590;2022-10-22T09:01:38;100243.47;;;16.15;100.00
15263;BME280;7733;51.554;13.590;2022-10-22T09:04:27;100245.38;;;16.11;100.00
15263;BME280;7733;51.554;13.590;2022-10-22T09:06:57;100245.84;;;16.23;100.00
15263;BME280;7733;51.554;13.590;2022-10-22T09:09:32;100237.13;;;16.19;100.00
15263;BME280;7733;51.554;13.590;2022-10-22T09:12:02;100235.19;;;16.24;100.00
15263;BME280;7733;51.554;13.590;2022-10-22T09:14:29;100240.97;;;16.34;100.00
15263;BME280;7733;51.554;13.590;2022-10-22T09:17:35;100237.75;;;16.26;100.00
15263;BME280;7733;51.554;13.590;2022-10-22T09:20:20;100251.53;;;16.34;100.00
15263;BME280;7733;51.554;13.590;2022-10-22T09:23:11;100254.94;;;16.37;100.00
15263;BME280;7733;51.554;13.590;2022-10-22T09:25:42;100246.13;;;16.59;100.00
15263;BME280;7733;51.554;13.590;2022-10-22T09:28:10;100251.28;;;16.40;100.00
15263;BME280;7733;51.554;13.590;2022-10-22T09:30:38;100255.13;;;16.33;100.00
15263;BME280;7733;51.554;13.590;2022-10-22T09:33:20;100252.84;;;16.46;100.00
15263;BME280;7733;51.554;13.590;2022-10-22T09:35:57;100246.69;;;16.45;100.00
15263;BME280;7733;51.554;13.590;2022-10-22T09:38:30;100250.00;;;16.50;100.00
15263;BME280;7733;51.554;13.590;2022-10-22T09:40:59;100250.69;;;16.33;100.00
15263;BME280;7733;51.554;13.590;2022-10-22T09:43:28;100253.72;;;16.46;100.00
15263;BME280;7733;51.554;13.590;2022-10-22T09:46:04;100259.81;;;16.48;100.00
15263;BME280;7733;51.554;13.590;2022-10-22T09:48:40;100258.63;;;16.33;100.00
15263;BME280;7733;51.554;13.590;2022-10-22T09:51:35;100257.88;;;16.30;100.00
15263;BME280;7733;51.554;13.590;2022-10-22T09:57:16;100256.72;;;16.37;100.00
15263;BME280;7733;51.554;13.590;2022-10-22T09:59:49;100262.31;;;16.51;100.00
15263;BME280;7733;51.554;13.590;2022-10-22T10:02:26;100261.22;;;16.35;100.00
15263;BME280;7733;51.554;13.590;2022-10-22T10:04:56;100261.41;;;16.52;100.00
15263;BME280;7733;51.554;13.590;2022-10-22T10:07:26;100259.06;;;16.45;100.00
15263;BME280;7733;51.554;13.590;2022-10-22T10:09:53;100254.50;;;16.48;100.00
15263;BME280;7733;51.554;13.590;2022-10-22T10:12:35;100250.25;;;16.66;100.00
15263;BME280;7733;51.554;13.590;2022-10-22T10:15:30;100263.38;;;16.47;100.00
15263;BME280;7733;51.554;13.590;2022-10-22T10:18:44;100257.34;;;16.65;100.00
15263;BME280;7733;51.554;13.590;2022-10-22T10:22:04;100263.66;;;16.61;100.00
15263;BME280;7733;51.554;13.590;2022-10-22T10:24:44;100254.91;;;16.59;100.00
15263;BME280;7733;51.554;13.590;2022-10-22T10:27:49;100259.63;;;16.75;100.00
15263;BME280;7733;51.554;13.590;2022-10-22T10:30:19;100259.19;;;16.63;100.00
15263;BME280;7733;51.554;13.590;2022-10-22T10:36:23;100258.69;;;16.76;100.00
15263;BME280;7733;51.554;13.590;2022-10-22T10:39:00;100263.06;;;16.77;100.00
15263;BME280;7733;51.554;13.590;2022-10-22T10:54:03;100272.44;;;16.85;100.00
15263;BME280;7733;51.554;13.590;2022-10-22T10:56:44;100273.03;;;16.92;100.00
15263;BME280;7733;51.554;13.590;2022-10-22T10:59:37;100265.56;;;17.22;100.00
15263;BME280;7733;51.554;13.590;2022-10-22T11:08:24;100264.94;;;17.56;100.00
15263;BME280;7733;51.554;13.590;2022-10-22T11:11:04;100272.25;;;17.51;100.00
15263;BME280;7733;51.554;13.590;2022-10-22T11:13:37;100270.00;;;17.62;100.00
15263;BME280;7733;51.554;13.590;2022-10-22T11:16:52;100273.28;;;17.67;100.00
15263;BME280;7733;51.554;13.590;2022-10-22T11:19:33;100267.59;;;17.76;100.00
15263;BME280;7733;51.554;13.590;2022-10-22T11:22:36;100274.47;;;17.80;100.00
15263;BME280;7733;51.554;13.590;2022-10-22T11:27:56;100269.97;;;18.01;100.00
15263;BME280;7733;51.554;13.590;2022-10-22T11:30:29;100278.75;;;17.64;100.00
15263;BME280;7733;51.554;13.590;2022-10-22T11:33:03;100275.34;;;17.60;100.00
15263;BME280;7733;51.554;13.590;2022-10-22T11:35:33;100281.31;;;17.66;100.00
15263;BME280;7733;51.554;13.590;2022-10-22T11:38:04;100279.28;;;17.72;100.00
15263;BME280;7733;51.554;13.590;2022-10-22T11:41:01;100272.75;;;17.79;100.00
15263;BME280;7733;51.554;13.590;2022-10-22T11:43:33;100273.69;;;17.97;100.00
15263;BME280;7733;51.554;13.590;2022-10-22T11:46:28;100285.97;;;18.00;100.00
15263;BME280;7733;51.554;13.590;2022-10-22T11:51:39;100275.88;;;18.08;100.00
15263;BME280;7733;51.554;13.590;2022-10-22T11:59:56;100285.56;;;18.09;100.00
15263;BME280;7733;51.554;13.590;2022-10-22T12:02:43;100287.56;;;18.04;100.00
15263;BME280;7733;51.554;13.590;2022-10-22T12:10:33;100282.19;;;18.24;100.00
15263;BME280;7733;51.554;13.590;2022-10-22T12:13:12;100283.19;;;18.03;100.00
15263;BME280;7733;51.554;13.590;2022-10-22T12:15:52;100285.25;;;18.15;100.00
15263;BME280;7733;51.554;13.590;2022-10-22T12:18:25;100282.53;;;18.35;100.00
15263;BME280;7733;51.554;13.590;2022-10-22T12:20:52;100281.44;;;18.39;100.00
15263;BME280;7733;51.554;13.590;2022-10-22T12:23:29;100278.44;;;18.47;100.00
15263;BME280;7733;51.554;13.590;2022-10-22T12:25:55;100283.38;;;18.54;100.00
15263;BME280;7733;51.554;13.590;2022-10-22T12:28:21;100279.84;;;18.54;100.00
15263;BME280;7733;51.554;13.590;2022-10-22T12:30:47;100287.13;;;18.69;100.00
15263;BME280;7733;51.554;13.590;2022-10-22T12:33:22;100278.03;;;18.73;100.00
15263;BME280;7733;51.554;13.590;2022-10-22T12:35:49;100280.22;;;18.65;100.00
15263;BME280;7733;51.554;13.590;2022-10-22T12:38:22;100278.13;;;18.53;100.00
15263;BME280;7733;51.554;13.590;2022-10-22T12:40:53;100279.94;;;18.52;100.00
15263;BME280;7733;51.554;13.590;2022-10-22T12:43:25;100283.91;;;18.63;100.00
15263;BME280;7733;51.554;13.590;2022-10-22T12:45:52;100282.00;;;18.83;100.00
15263;BME280;7733;51.554;13.590;2022-10-22T12:48:30;100279.16;;;18.69;100.00
15263;BME280;7733;51.554;13.590;2022-10-22T12:51:01;100288.75;;;18.53;100.00
15263;BME280;7733;51.554;13.590;2022-10-22T12:53:43;100284.16;;;18.57;100.00
15263;BME280;7733;51.554;13.590;2022-10-22T12:56:13;100283.00;;;18.62;100.00
15263;BME280;7733;51.554;13.590;2022-10-22T13:01:21;100287.97;;;18.70;100.00
15263;BME280;7733;51.554;13.590;2022-10-22T13:03:50;100283.84;;;18.81;100.00
15263;BME280;7733;51.554;13.590;2022-10-22T13:11:21;100304.00;;;18.68;100.00
15263;BME280;7733;51.554;13.590;2022-10-22T13:13:47;100295.09;;;18.50;100.00
15263;BME280;7733;51.554;13.590;2022-10-22T13:16:20;100297.44;;;18.57;100.00
15263;BME280;7733;51.554;13.590;2022-10-22T13:18:50;100304.94;;;18.67;100.00
15263;BME280;7733;51.554;13.590;2022-10-22T13:21:37;100301.19;;;18.52;100.00
15263;BME280;7733;51.554;13.590;2022-10-22T13:24:19;100296.66;;;18.54;100.00
15263;BME280;7733;51.554;13.590;2022-10-22T13:26:50;100302.75;;;18.57;100.00
15263;BME280;7733;51.554;13.590;2022-10-22T13:29:20;100301.88;;;18.56;100.00
15263;BME280;7733;51.554;13.590;2022-10-22T13:31:52;100307.44;;;18.51;100.00
15263;BME280;7733;51.554;13.590;2022-10-22T13:34:21;100311.34;;;18.62;100.00
15263;BME280;7733;51.554;13.590;2022-10-22T13:36:48;100308.84;;;18.59;100.00
15263;BME280;7733;51.554;13.590;2022-10-22T13:39:21;100307.84;;;18.61;100.00
15263;BME280;7733;51.554;13.590;2022-10-22T13:41:47;100308.97;;;18.93;100.00
15263;BME280;7733;51.554;13.590;2022-10-22T13:44:15;100307.56;;;19.03;100.00
15263;BME280;7733;51.554;13.590;2022-10-22T13:46:41;100310.06;;;19.06;100.00
15263;BME280;7733;51.554;13.590;2022-10-22T13:49:17;100311.28;;;18.99;100.00
15263;BME280;7733;51.554;13.590;2022-10-22T13:51:45;100323.81;;;18.97;100.00
15263;BME280;7733;51.554;13.590;2022-10-22T13:54:20;100305.69;;;19.05;100.00
15263;BME280;7733;51.554;13.590;2022-10-22T13:56:46;100320.84;;;18.86;100.00
15263;BME280;7733;51.554;13.590;2022-10-22T13:59:12;100316.41;;;19.21;100.00
15263;BME280;7733;51.554;13.590;2022-10-22T14:01:37;100315.94;;;19.30;100.00
15263;BME280;7733;51.554;13.590;2022-10-22T14:04:06;100313.59;;;19.24;100.00
15263;BME280;7733;51.554;13.590;2022-10-22T14:06:34;100316.34;;;19.23;100.00
15263;BME280;7733;51.554;13.590;2022-10-22T14:09:09;100319.91;;;19.39;100.00